sensor_id;sensor_type;location;lat;lon;timestamp;pressure;altitude;pressure_sealevel;temperature;humidity
59487;BME280;45298;54.918;73.504;2022-11-02T00:02:17;100278.94;;;-1.08;90.00
59487;BME280;45298;54.918;73.504;2022-11-02T00:04:46;100291.88;;;-1.03;89.70
59487;BME280;45298;54.918;73.504;2022-11-02T00:07:15;100266.88;;;-1.16;89.81
59487;BME280;45298;54.918;73.504;2022-11-02T00:09:43;100303.22;;;-1.07;90.10
59487;BME280;45298;54.918;73.504;2022-11-02T00:12:12;100307.53;;;-1.04;90.44
59487;BME280;45298;54.918;73.504;2022-11-02T00:14:41;100305.78;;;-1.04;89.82
59487;BME280;45298;54.918;73.504;2022-11-02T00:17:10;100284.22;;;-1.17;90.24
59487;BME280;45298;54.918;73.504;2022-11-02T00:19:39;100282.50;;;-1.16;89.86
59487;BME280;45298;54.918;73.504;2022-11-02T00:22:08;100295.44;;;-1.09;90.25
59487;BME280;45298;54.918;73.504;2022-11-02T00:24:37;100297.19;;;-1.09;90.11
59487;BME280;45298;54.918;73.504;2022-11-02T00:27:09;100249.75;;;-1.39;90.02
59487;BME280;45298;54.918;73.504;2022-11-02T00:29:38;100258.38;;;-1.34;90.05
59487;BME280;45298;54.918;73.504;2022-11-02T00:32:07;100286.00;;;-1.19;89.80
59487;BME280;45298;54.918;73.504;2022-11-02T00:34:35;100222.19;;;-1.57;89.65
59487;BME280;45298;54.918;73.504;2022-11-02T00:37:04;100266.16;;;-1.31;90.39
59487;BME280;45298;54.918;73.504;2022-11-02T00:39:33;100276.41;;;-1.17;90.12
59487;BME280;45298;54.918;73.504;2022-11-02T00:42:02;100246.22;;;-1.33;90.11
59487;BME280;45298;54.918;73.504;2022-11-02T00:44:31;100227.25;;;-1.45;89.85
59487;BME280;45298;54.918;73.504;2022-11-02T00:47:00;100251.44;;;-1.35;90.37
59487;BME280;45298;54.918;73.504;2022-11-02T00:49:29;100237.66;;;-1.45;89.73
59487;BME280;45298;54.918;73.504;2022-11-02T00:51:58;100259.25;;;-1.37;90.36
59487;BME280;45298;54.918;73.504;2022-11-02T00:54:28;100253.25;;;-1.42;90.28
59487;BME280;45298;54.918;73.504;2022-11-02T00:56:56;100251.56;;;-1.47;90.42
59487;BME280;45298;54.918;73.504;2022-11-02T00:59:25;100209.28;;;-1.73;90.28
59487;BME280;45298;54.918;73.504;2022-11-02T01:01:56;100234.28;;;-1.55;90.20
59487;BME280;45298;54.918;73.504;2022-11-02T01:04:25;100185.13;;;-1.86;90.23
59487;BME280;45298;54.918;73.504;2022-11-02T01:06:54;100255.88;;;-1.46;90.34
59487;BME280;45298;54.918;73.504;2022-11-02T01:09:22;100202.38;;;-1.75;90.46
59487;BME280;45298;54.918;73.504;2022-11-02T01:11:51;100251.50;;;-1.44;90.92
59487;BME280;45298;54.918;73.504;2022-11-02T01:14:22;100246.31;;;-1.44;90.06
59487;BME280;45298;54.918;73.504;2022-11-02T01:16:50;100229.09;;;-1.58;90.16
59487;BME280;45298;54.918;73.504;2022-11-02T01:19:20;100255.81;;;-1.39;90.61
59487;BME280;45298;54.918;73.504;2022-11-02T01:21:48;100240.31;;;-1.49;90.41
59487;BME280;45298;54.918;73.504;2022-11-02T01:24:17;100241.13;;;-1.46;90.23
59487;BME280;45298;54.918;73.504;2022-11-02T01:26:50;100235.97;;;-1.47;90.23
59487;BME280;45298;54.918;73.504;2022-11-02T01:29:23;100231.66;;;-1.52;90.68
59487;BME280;45298;54.918;73.504;2022-11-02T01:31:51;100173.03;;;-1.87;90.75
59487;BME280;45298;54.918;73.504;2022-11-02T01:34:23;100216.94;;;-1.56;90.61
59487;BME280;45298;54.918;73.504;2022-11-02T01:36:52;100229.09;;;-1.58;90.67
59487;BME280;45298;54.918;73.504;2022-11-02T01:39:21;100226.50;;;-1.58;90.81
59487;BME280;45298;54.918;73.504;2022-11-02T01:41:51;100235.16;;;-1.56;90.28
59487;BME280;45298;54.918;73.504;2022-11-02T01:44:29;100190.31;;;-1.84;90.77
59487;BME280;45298;54.918;73.504;2022-11-02T01:47:22;100228.28;;;-1.64;90.62
59487;BME280;45298;54.918;73.504;2022-11-02T01:49:56;100227.38;;;-1.57;90.41
59487;BME280;45298;54.918;73.504;2022-11-02T01:52:33;100230.81;;;-1.57;90.99
59487;BME280;45298;54.918;73.504;2022-11-02T01:55:45;100227.41;;;-1.62;90.58
59487;BME280;45298;54.918;73.504;2022-11-02T01:58:08;100212.75;;;-1.72;90.72
59487;BME280;45298;54.918;73.504;2022-11-02T02:00:38;100234.31;;;-1.61;90.39
59487;BME280;45298;54.918;73.504;2022-11-02T02:03:10;100210.16;;;-1.72;90.49
59487;BME280;45298;54.918;73.504;2022-11-02T02:06:27;100195.47;;;-1.76;90.67
59487;BME280;45298;54.918;73.504;2022-11-02T02:08:31;100185.13;;;-1.86;91.06
59487;BME280;45298;54.918;73.504;2022-11-02T02:11:00;100202.41;;;-1.78;90.25
59487;BME280;45298;54.918;73.504;2022-11-02T02:13:28;100149.75;;;-2.01;90.77
59487;BME280;45298;54.918;73.504;2022-11-02T02:16:10;100210.94;;;-1.64;91.14
59487;BME280;45298;54.918;73.504;2022-11-02T02:18:51;100209.22;;;-1.63;90.63
59487;BME280;45298;54.918;73.504;2022-11-02T02:21:48;100161.78;;;-1.93;91.08
59487;BME280;45298;54.918;73.504;2022-11-02T02:27:21;100213.53;;;-1.64;91.58
59487;BME280;45298;54.918;73.504;2022-11-02T02:30:08;100200.59;;;-1.72;91.21
59487;BME280;45298;54.918;73.504;2022-11-02T02:32:47;100217.84;;;-1.60;91.42
59487;BME280;45298;54.918;73.504;2022-11-02T02:35:27;100178.09;;;-1.74;91.01
59487;BME280;45298;54.918;73.504;2022-11-02T02:38:29;100209.19;;;-1.60;91.21
59487;BME280;45298;54.918;73.504;2022-11-02T02:43:59;100186.69;;;-1.66;90.95
59487;BME280;45298;54.918;73.504;2022-11-02T02:46:36;100212.59;;;-1.54;91.07
59487;BME280;45298;54.918;73.504;2022-11-02T02:49:14;100176.28;;;-1.66;91.46
59487;BME280;45298;54.918;73.504;2022-11-02T02:51:44;100163.41;;;-1.77;91.70
59487;BME280;45298;54.918;73.504;2022-11-02T02:54:19;100185.75;;;-1.59;91.17
59487;BME280;45298;54.918;73.504;2022-11-02T02:56:55;100184.00;;;-1.57;91.49
59487;BME280;45298;54.918;73.504;2022-11-02T02:59:35;100192.56;;;-1.44;91.28
59487;BME280;45298;54.918;73.504;2022-11-02T03:04:46;100195.09;;;-1.39;91.47
59487;BME280;45298;54.918;73.504;2022-11-02T03:07:27;100185.56;;;-1.39;91.59
59487;BME280;45298;54.918;73.504;2022-11-02T03:10:19;100171.72;;;-1.45;91.05
59487;BME280;45298;54.918;73.504;2022-11-02T03:13:08;100216.56;;;-1.18;90.94
59487;BME280;45298;54.918;73.504;2022-11-02T03:23:43;100177.47;;;-1.12;91.20
59487;BME280;45298;54.918;73.504;2022-11-02T03:26:25;100197.97;;;-0.86;91.33
59487;BME280;45298;54.918;73.504;2022-11-02T03:29:15;100144.53;;;-1.16;91.34
59487;BME280;45298;54.918;73.504;2022-11-02T03:31:59;100178.88;;;-0.86;90.87
59487;BME280;45298;54.918;73.504;2022-11-02T03:34:44;100180.59;;;-0.85;90.97
59487;BME280;45298;54.918;73.504;2022-11-02T03:37:30;100174.50;;;-0.83;90.71
59487;BME280;45298;54.918;73.504;2022-11-02T03:40:04;100184.78;;;-0.73;90.91
59487;BME280;45298;54.918;73.504;2022-11-02T03:42:36;100153.69;;;-0.87;90.72
59487;BME280;45298;54.918;73.504;2022-11-02T03:47:39;100198.56;;;-0.67;90.61
59487;BME280;45298;54.918;73.504;2022-11-02T03:50:12;100181.28;;;-0.71;90.86
59487;BME280;45298;54.918;73.504;2022-11-02T03:52:46;100195.03;;;-0.59;90.79
59487;BME280;45298;54.918;73.504;2022-11-02T03:55:27;100171.66;;;-0.66;90.95
59487;BME280;45298;54.918;73.504;2022-11-02T03:57:57;100184.63;;;-0.63;90.58
59487;BME280;45298;54.918;73.504;2022-11-02T04:00:32;100180.22;;;-0.57;90.75
59487;BME280;45298;54.918;73.504;2022-11-02T04:03:07;100182.66;;;-0.45;91.02
59487;BME280;45298;54.918;73.504;2022-11-02T04:05:42;100155.09;;;-0.60;90.72
59487;BME280;45298;54.918;73.504;2022-11-02T04:08:21;100162.75;;;-0.49;90.60
59487;BME280;45298;54.918;73.504;2022-11-02T04:11:00;100148.78;;;-0.43;90.95
59487;BME280;45298;54.918;73.504;2022-11-02T04:13:49;100152.19;;;-0.40;90.88
59487;BME280;45298;54.918;73.504;2022-11-02T04:16:40;100171.81;;;-0.17;90.63
59487;BME280;45298;54.918;73.504;2022-11-02T04:19:14;100156.19;;;-0.19;90.69
59487;BME280;45298;54.918;73.504;2022-11-02T04:22:06;100115.56;;;-0.31;90.40
59487;BME280;45298;54.918;73.504;2022-11-02T04:25:01;100154.22;;;-0.04;90.48
59487;BME280;45298;54.918;73.504;2022-11-02T04:28:07;100135.97;;;-0.04;90.39
59487;BME280;45298;54.918;73.504;2022-11-02T04:30:45;100151.41;;;0.08;90.40
59487;BME280;45298;54.918;73.504;2022-11-02T04:33:15;100144.34;;;0.15;90.32
59487;BME280;45298;54.918;73.504;2022-11-02T04:36:07;100123.53;;;0.12;90.19
59487;BME280;45298;54.918;73.504;2022-11-02T04:38:38;100109.59;;;0.13;90.16
59487;BME280;45298;54.918;73.504;2022-11-02T04:41:20;100128.47;;;0.27;89.91
59487;BME280;45298;54.918;73.504;2022-11-02T04:44:24;100063.88;;;-0.07;89.89
59487;BME280;45298;54.918;73.504;2022-11-02T04:47:02;100093.84;;;0.19;89.94
59487;BME280;45298;54.918;73.504;2022-11-02T04:49:34;100097.28;;;0.20;89.71
59487;BME280;45298;54.918;73.504;2022-11-02T04:52:05;100047.34;;;-0.06;89.89
59487;BME280;45298;54.918;73.504;2022-11-02T04:54:35;100109.03;;;0.44;89.76
59487;BME280;45298;54.918;73.504;2022-11-02T04:57:05;100058.16;;;0.21;89.53
59487;BME280;45298;54.918;73.504;2022-11-02T04:59:34;100112.91;;;0.68;89.63
59487;BME280;45298;54.918;73.504;2022-11-02T05:02:02;100110.13;;;0.78;89.24
59487;BME280;45298;54.918;73.504;2022-11-02T05:04:32;100055.75;;;0.56;89.00
59487;BME280;45298;54.918;73.504;2022-11-02T05:07:01;100070.06;;;0.77;89.07
59487;BME280;45298;54.918;73.504;2022-11-02T05:09:35;100079.13;;;1.01;88.93
59487;BME280;45298;54.918;73.504;2022-11-02T05:12:04;100051.53;;;0.89;88.80
59487;BME280;45298;54.918;73.504;2022-11-02T05:14:34;100064.22;;;1.07;88.41
59487;BME280;45298;54.918;73.504;2022-11-02T05:17:03;100070.28;;;1.09;88.37
59487;BME280;45298;54.918;73.504;2022-11-02T05:19:34;100060.53;;;1.17;88.33
59487;BME280;45298;54.918;73.504;2022-11-02T05:22:04;100045.00;;;1.09;88.30
59487;BME280;45298;54.918;73.504;2022-11-02T05:24:33;100066.09;;;1.39;88.20
59487;BME280;45298;54.918;73.504;2022-11-02T05:27:03;100062.47;;;1.45;88.02
59487;BME280;45298;54.918;73.504;2022-11-02T05:29:35;100056.41;;;1.44;87.82
59487;BME280;45298;54.918;73.504;2022-11-02T05:32:04;100065.41;;;1.67;87.43
59487;BME280;45298;54.918;73.504;2022-11-02T05:34:33;100068.00;;;1.67;87.10
59487;BME280;45298;54.918;73.504;2022-11-02T05:37:03;100074.00;;;1.72;87.38
59487;BME280;45298;54.918;73.504;2022-11-02T05:39:32;100013.75;;;1.41;87.19
59487;BME280;45298;54.918;73.504;2022-11-02T05:42:01;100052.19;;;1.73;87.21
59487;BME280;45298;54.918;73.504;2022-11-02T05:44:30;100043.38;;;1.77;86.80
59487;BME280;45298;54.918;73.504;2022-11-02T05:46:58;100054.28;;;1.93;86.66
59487;BME280;45298;54.918;73.504;2022-11-02T05:49:27;100022.38;;;1.80;87.25
59487;BME280;45298;54.918;73.504;2022-11-02T05:51:56;100022.78;;;1.96;86.41
59487;BME280;45298;54.918;73.504;2022-11-02T05:54:25;100039.03;;;2.09;86.16
59487;BME280;45298;54.918;73.504;2022-11-02T05:56:53;100006.94;;;2.03;86.42
59487;BME280;45298;54.918;73.504;2022-11-02T05:59:22;100028.25;;;2.22;86.29
59487;BME280;45298;54.918;73.504;2022-11-02T06:01:50;99996.19;;;2.14;85.91
59487;BME280;45298;54.918;73.504;2022-11-02T06:04:19;99956.47;;;1.99;85.59
59487;BME280;45298;54.918;73.504;2022-11-02T06:06:47;100020.47;;;2.50;85.53
59487;BME280;45298;54.918;73.504;2022-11-02T06:09:16;100006.56;;;2.47;85.28
59487;BME280;45298;54.918;73.504;2022-11-02T06:11:45;100010.66;;;2.57;85.01
59487;BME280;45298;54.918;73.504;2022-11-02T06:14:14;99997.56;;;2.57;85.08
59487;BME280;45298;54.918;73.504;2022-11-02T06:16:42;99994.13;;;2.55;84.44
59487;BME280;45298;54.918;73.504;2022-11-02T06:19:11;100010.75;;;2.84;84.71
59487;BME280;45298;54.918;73.504;2022-11-02T06:21:41;100003.78;;;2.83;84.68
59487;BME280;45298;54.918;73.504;2022-11-02T06:24:14;100002.81;;;2.85;83.92
59487;BME280;45298;54.918;73.504;2022-11-02T06:26:43;100024.94;;;3.05;83.68
59487;BME280;45298;54.918;73.504;2022-11-02T06:29:13;100004.81;;;3.06;84.22
59487;BME280;45298;54.918;73.504;2022-11-02T06:31:42;99998.38;;;3.16;83.97
59487;BME280;45298;54.918;73.504;2022-11-02T06:34:11;100000.69;;;3.25;83.91
59487;BME280;45298;54.918;73.504;2022-11-02T06:36:39;99996.97;;;3.32;83.14
59487;BME280;45298;54.918;73.504;2022-11-02T06:39:08;100002.78;;;3.42;83.00
59487;BME280;45298;54.918;73.504;2022-11-02T06:41:36;100000.63;;;3.54;83.05
59487;BME280;45298;54.918;73.504;2022-11-02T06:44:05;100001.06;;;3.67;82.06
59487;BME280;45298;54.918;73.504;2022-11-02T06:46:34;99975.13;;;3.59;81.88
59487;BME280;45298;54.918;73.504;2022-11-02T06:49:03;99973.94;;;3.68;81.66
59487;BME280;45298;54.918;73.504;2022-11-02T06:51:31;99976.34;;;3.74;81.40
59487;BME280;45298;54.918;73.504;2022-11-02T06:54:00;99946.38;;;3.56;81.54
59487;BME280;45298;54.918;73.504;2022-11-02T06:56:34;99993.22;;;3.92;81.27
59487;BME280;45298;54.918;73.504;2022-11-02T06:59:03;99978.16;;;3.97;80.90
59487;BME280;45298;54.918;73.504;2022-11-02T07:01:32;99977.78;;;4.08;81.23
59487;BME280;45298;54.918;73.504;2022-11-02T07:04:02;99984.25;;;4.23;80.85
59487;BME280;45298;54.918;73.504;2022-11-02T07:06:31;100003.34;;;4.27;80.38
59487;BME280;45298;54.918;73.504;2022-11-02T07:08:59;99992.22;;;4.20;80.59
59487;BME280;45298;54.918;73.504;2022-11-02T07:11:28;99994.13;;;4.16;80.27
59487;BME280;45298;54.918;73.504;2022-11-02T07:13:57;99982.00;;;4.12;80.79
59487;BME280;45298;54.918;73.504;2022-11-02T07:16:25;99965.00;;;3.99;80.89
59487;BME280;45298;54.918;73.504;2022-11-02T07:18:54;99985.66;;;4.08;80.69
59487;BME280;45298;54.918;73.504;2022-11-02T07:21:23;99913.47;;;3.72;80.55
59487;BME280;45298;54.918;73.504;2022-11-02T07:23:51;99934.56;;;3.93;80.95
59487;BME280;45298;54.918;73.504;2022-11-02T07:26:20;99920.09;;;3.83;80.32
59487;BME280;45298;54.918;73.504;2022-11-02T07:28:48;99942.28;;;3.98;80.52
59487;BME280;45298;54.918;73.504;2022-11-02T07:31:24;99919.34;;;4.03;80.46
59487;BME280;45298;54.918;73.504;2022-11-02T07:33:53;99936.13;;;4.22;80.25
59487;BME280;45298;54.918;73.504;2022-11-02T07:36:21;99913.81;;;4.11;79.85
59487;BME280;45298;54.918;73.504;2022-11-02T07:38:50;99942.84;;;4.30;80.05
59487;BME280;45298;54.918;73.504;2022-11-02T07:41:19;99927.31;;;4.23;79.74
59487;BME280;45298;54.918;73.504;2022-11-02T07:43:47;99903.25;;;4.12;79.60
59487;BME280;45298;54.918;73.504;2022-11-02T07:46:24;99877.22;;;4.06;79.42
59487;BME280;45298;54.918;73.504;2022-11-02T07:48:53;99925.28;;;4.32;79.50
59487;BME280;45298;54.918;73.504;2022-11-02T07:51:22;99928.41;;;4.42;79.64
59487;BME280;45298;54.918;73.504;2022-11-02T07:53:51;99917.09;;;4.39;79.49
59487;BME280;45298;54.918;73.504;2022-11-02T07:56:19;99890.81;;;4.17;79.58
59487;BME280;45298;54.918;73.504;2022-11-02T07:58:48;99863.31;;;4.04;79.45
59487;BME280;45298;54.918;73.504;2022-11-02T08:01:16;99904.19;;;4.33;79.32
59487;BME280;45298;54.918;73.504;2022-11-02T08:03:46;99894.75;;;4.29;79.25
59487;BME280;45298;54.918;73.504;2022-11-02T08:06:15;99894.00;;;4.26;79.13
59487;BME280;45298;54.918;73.504;2022-11-02T08:08:44;99889.00;;;4.19;79.28
59487;BME280;45298;54.918;73.504;2022-11-02T08:11:12;99902.75;;;4.26;79.68
59487;BME280;45298;54.918;73.504;2022-11-02T08:13:41;99906.09;;;4.30;79.08
59487;BME280;45298;54.918;73.504;2022-11-02T08:16:10;99888.00;;;4.22;79.25
59487;BME280;45298;54.918;73.504;2022-11-02T08:18:38;99874.69;;;4.27;79.04
59487;BME280;45298;54.918;73.504;2022-11-02T08:21:08;99895.38;;;4.36;79.22
59487;BME280;45298;54.918;73.504;2022-11-02T08:23:37;99886.50;;;4.38;78.79
59487;BME280;45298;54.918;73.504;2022-11-02T08:26:05;99877.91;;;4.35;78.91
59487;BME280;45298;54.918;73.504;2022-11-02T08:28:34;99874.16;;;4.41;78.75
59487;BME280;45298;54.918;73.504;2022-11-02T08:31:03;99867.94;;;4.43;79.06
59487;BME280;45298;54.918;73.504;2022-11-02T08:33:34;99848.22;;;4.33;78.98
59487;BME280;45298;54.918;73.504;2022-11-02T08:36:03;99864.38;;;4.44;78.47
59487;BME280;45298;54.918;73.504;2022-11-02T08:38:32;99831.84;;;4.26;78.53
59487;BME280;45298;54.918;73.504;2022-11-02T08:41:00;99826.50;;;4.29;78.64
59487;BME280;45298;54.918;73.504;2022-11-02T08:43:29;99855.66;;;4.44;78.47
59487;BME280;45298;54.918;73.504;2022-11-02T08:46:00;99841.88;;;4.38;78.45
59487;BME280;45298;54.918;73.504;2022-11-02T08:48:45;99822.31;;;4.23;78.83
59487;BME280;45298;54.918;73.504;2022-11-02T08:51:14;99847.91;;;4.41;78.69
59487;BME280;45298;54.918;73.504;2022-11-02T08:53:42;99823.19;;;4.24;78.55
59487;BME280;45298;54.918;73.504;2022-11-02T08:56:18;99827.94;;;4.14;78.85
59487;BME280;45298;54.918;73.504;2022-11-02T08:58:47;99822.47;;;4.20;78.80
59487;BME280;45298;54.918;73.504;2022-11-02T09:01:15;99832.66;;;4.28;78.71
59487;BME280;45298;54.918;73.504;2022-11-02T09:03:44;99795.22;;;4.01;78.81
59487;BME280;45298;54.918;73.504;2022-11-02T09:06:13;99811.09;;;4.20;78.49
59487;BME280;45298;54.918;73.504;2022-11-02T09:08:42;99788.69;;;4.11;78.46
59487;BME280;45298;54.918;73.504;2022-11-02T09:11:11;99801.19;;;4.27;78.62
59487;BME280;45298;54.918;73.504;2022-11-02T09:13:42;99820.13;;;4.35;78.90
59487;BME280;45298;54.918;73.504;2022-11-02T09:16:11;99801.47;;;4.20;78.76
59487;BME280;45298;54.918;73.504;2022-11-02T09:18:39;99805.59;;;4.26;79.04
59487;BME280;45298;54.918;73.504;2022-11-02T09:21:08;99802.72;;;4.32;78.62
59487;BME280;45298;54.918;73.504;2022-11-02T09:23:37;99795.69;;;4.33;78.78
59487;BME280;45298;54.918;73.504;2022-11-02T09:26:05;99778.44;;;4.27;78.76
59487;BME280;45298;54.918;73.504;2022-11-02T09:28:34;99796.91;;;4.46;78.51
59487;BME280;45298;54.918;73.504;2022-11-02T09:31:06;99765.03;;;4.33;78.64
59487;BME280;45298;54.918;73.504;2022-11-02T09:33:38;99795.06;;;4.48;78.57
59487;BME280;45298;54.918;73.504;2022-11-02T09:36:07;99700.91;;;3.96;78.25
59487;BME280;45298;54.918;73.504;2022-11-02T09:38:36;99755.59;;;4.29;78.34
59487;BME280;45298;54.918;73.504;2022-11-02T09:41:16;99752.22;;;4.26;78.34
59487;BME280;45298;54.918;73.504;2022-11-02T09:46:36;99782.47;;;4.36;78.21
59487;BME280;45298;54.918;73.504;2022-11-02T09:49:18;99787.59;;;4.39;78.43
59487;BME280;45298;54.918;73.504;2022-11-02T09:51:55;99760.91;;;4.28;78.81
59487;BME280;45298;54.918;73.504;2022-11-02T09:54:39;99780.50;;;4.41;78.81
59487;BME280;45298;54.918;73.504;2022-11-02T09:57:30;99738.81;;;4.11;78.48
59487;BME280;45298;54.918;73.504;2022-11-02T10:00:00;99774.47;;;4.39;78.65
59487;BME280;45298;54.918;73.504;2022-11-02T10:02:49;99719.16;;;3.99;78.72
59487;BME280;45298;54.918;73.504;2022-11-02T10:11:06;99736.91;;;4.15;78.54
59487;BME280;45298;54.918;73.504;2022-11-02T10:13:41;99755.84;;;4.23;79.11
59487;BME280;45298;54.918;73.504;2022-11-02T10:16:18;99735.38;;;4.09;78.56
59487;BME280;45298;54.918;73.504;2022-11-02T10:18:52;99733.69;;;4.08;78.95
59487;BME280;45298;54.918;73.504;2022-11-02T10:21:32;99728.69;;;4.02;78.71
59487;BME280;45298;54.918;73.504;2022-11-02T10:26:38;99721.09;;;3.94;79.16
59487;BME280;45298;54.918;73.504;2022-11-02T10:29:17;99696.47;;;3.76;79.17
59487;BME280;45298;54.918;73.504;2022-11-02T10:31:47;99712.59;;;3.89;79.66
59487;BME280;45298;54.918;73.504;2022-11-02T10:34:24;99723.06;;;3.89;79.55
59487;BME280;45298;54.918;73.504;2022-11-02T10:42:38;99725.88;;;3.84;79.81
59487;BME280;45298;54.918;73.504;2022-11-02T10:48:31;99713.13;;;3.75;80.03
59487;BME280;45298;54.918;73.504;2022-11-02T10:51:10;99689.31;;;3.57;80.27
59487;BME280;45298;54.918;73.504;2022-11-02T10:53:43;99688.53;;;3.55;80.47
59487;BME280;45298;54.918;73.504;2022-11-02T10:56:24;99695.59;;;3.53;80.56
59487;BME280;45298;54.918;73.504;2022-11-02T10:59:19;99687.72;;;3.53;80.78
59487;BME280;45298;54.918;73.504;2022-11-02T11:04:31;99679.53;;;3.39;81.26
59487;BME280;45298;54.918;73.504;2022-11-02T11:07:25;99686.03;;;3.28;81.66
59487;BME280;45298;54.918;73.504;2022-11-02T11:09:55;99696.13;;;3.39;81.53
59487;BME280;45298;54.918;73.504;2022-11-02T11:12:31;99701.44;;;3.38;81.73
59487;BME280;45298;54.918;73.504;2022-11-02T11:15:02;99692.75;;;3.36;82.07
59487;BME280;45298;54.918;73.504;2022-11-02T11:17:54;99679.25;;;3.23;82.04
59487;BME280;45298;54.918;73.504;2022-11-02T11:20:43;99677.00;;;3.13;82.45
59487;BME280;45298;54.918;73.504;2022-11-02T11:23:23;99670.78;;;3.16;82.29
59487;BME280;45298;54.918;73.504;2022-11-02T11:28:56;99671.00;;;3.10;82.62
59487;BME280;45298;54.918;73.504;2022-11-02T11:31:25;99682.88;;;3.20;83.21
59487;BME280;45298;54.918;73.504;2022-11-02T11:33:56;99678.06;;;3.08;82.85
59487;BME280;45298;54.918;73.504;2022-11-02T11:36:33;99645.59;;;2.88;83.26
59487;BME280;45298;54.918;73.504;2022-11-02T11:39:21;99667.84;;;3.01;83.16
59487;BME280;45298;54.918;73.504;2022-11-02T11:41:52;99661.31;;;2.88;83.44
59487;BME280;45298;54.918;73.504;2022-11-02T11:44:21;99677.63;;;2.96;84.03
59487;BME280;45298;54.918;73.504;2022-11-02T11:46:55;99688.63;;;3.06;83.67
59487;BME280;45298;54.918;73.504;2022-11-02T11:49:35;99685.25;;;3.02;84.01
59487;BME280;45298;54.918;73.504;2022-11-02T11:52:31;99662.09;;;2.90;84.09
59487;BME280;45298;54.918;73.504;2022-11-02T11:55:27;99660.38;;;2.91;84.41
59487;BME280;45298;54.918;73.504;2022-11-02T11:58:19;99671.69;;;2.91;84.59
59487;BME280;45298;54.918;73.504;2022-11-02T12:01:15;99643.53;;;2.72;84.94
59487;BME280;45298;54.918;73.504;2022-11-02T12:03:53;99642.81;;;2.69;84.66
59487;BME280;45298;54.918;73.504;2022-11-02T12:09:27;99670.47;;;2.76;85.30
59487;BME280;45298;54.918;73.504;2022-11-02T12:12:25;99646.50;;;2.63;85.41
59487;BME280;45298;54.918;73.504;2022-11-02T12:18:21;99564.28;;;2.18;86.07
59487;BME280;45298;54.918;73.504;2022-11-02T12:21:07;99650.59;;;2.70;85.68
59487;BME280;45298;54.918;73.504;2022-11-02T12:26:45;99648.22;;;2.64;86.45
59487;BME280;45298;54.918;73.504;2022-11-02T12:41:59;99623.19;;;2.55;86.76
59487;BME280;45298;54.918;73.504;2022-11-02T12:44:57;99588.91;;;2.38;86.61
59487;BME280;45298;54.918;73.504;2022-11-02T12:47:38;99630.28;;;2.53;86.99
59487;BME280;45298;54.918;73.504;2022-11-02T12:50:23;99619.94;;;2.49;87.11
59487;BME280;45298;54.918;73.504;2022-11-02T12:53:23;99610.34;;;2.49;87.17
59487;BME280;45298;54.918;73.504;2022-11-02T12:56:00;99588.06;;;2.37;87.19
59487;BME280;45298;54.918;73.504;2022-11-02T12:58:33;99579.00;;;2.22;87.30
59487;BME280;45298;54.918;73.504;2022-11-02T13:03:52;99606.22;;;2.42;87.17
59487;BME280;45298;54.918;73.504;2022-11-02T13:06:35;99594.09;;;2.39;87.96
59487;BME280;45298;54.918;73.504;2022-11-02T13:11:52;99607.81;;;2.46;87.71
59487;BME280;45298;54.918;73.504;2022-11-02T13:14:23;99618.09;;;2.52;87.69
59487;BME280;45298;54.918;73.504;2022-11-02T13:17:02;99627.59;;;2.55;87.97
59487;BME280;45298;54.918;73.504;2022-11-02T13:19:38;99622.44;;;2.52;87.67
59487;BME280;45298;54.918;73.504;2022-11-02T13:22:08;99624.38;;;2.47;87.79
59487;BME280;45298;54.918;73.504;2022-11-02T13:25:19;99614.59;;;2.52;88.00
59487;BME280;45298;54.918;73.504;2022-11-02T13:27:53;99583.47;;;2.44;87.78
59487;BME280;45298;54.918;73.504;2022-11-02T13:30:30;99600.94;;;2.44;87.82
59487;BME280;45298;54.918;73.504;2022-11-02T13:33:47;99597.41;;;2.45;87.98
59487;BME280;45298;54.918;73.504;2022-11-02T13:36:15;99582.72;;;2.40;87.95
59487;BME280;45298;54.918;73.504;2022-11-02T13:38:52;99604.94;;;2.54;88.09
59487;BME280;45298;54.918;73.504;2022-11-02T13:49:50;99568.34;;;2.27;87.73
59487;BME280;45298;54.918;73.504;2022-11-02T13:52:44;99563.81;;;2.32;88.44
59487;BME280;45298;54.918;73.504;2022-11-02T13:55:19;99570.44;;;2.42;88.38
59487;BME280;45298;54.918;73.504;2022-11-02T13:57:52;99576.34;;;2.48;87.78
59487;BME280;45298;54.918;73.504;2022-11-02T14:02:58;99565.41;;;2.36;88.37
59487;BME280;45298;54.918;73.504;2022-11-02T14:05:33;99565.31;;;2.39;88.51
59487;BME280;45298;54.918;73.504;2022-11-02T14:08:09;99555.13;;;2.32;88.34
59487;BME280;45298;54.918;73.504;2022-11-02T14:10:40;99567.88;;;2.41;88.31
59487;BME280;45298;54.918;73.504;2022-11-02T14:13:15;99555.69;;;2.40;88.51
59487;BME280;45298;54.918;73.504;2022-11-02T14:15:51;99565.94;;;2.46;88.22
59487;BME280;45298;54.918;73.504;2022-11-02T14:18:29;99561.53;;;2.47;88.53
59487;BME280;45298;54.918;73.504;2022-11-02T14:21:38;99567.53;;;2.50;88.91
59487;BME280;45298;54.918;73.504;2022-11-02T14:35:09;99546.34;;;2.56;88.39
59487;BME280;45298;54.918;73.504;2022-11-02T14:40:49;99526.38;;;2.54;88.15
59487;BME280;45298;54.918;73.504;2022-11-02T14:49:49;99500.69;;;2.41;88.17
59487;BME280;45298;54.918;73.504;2022-11-02T14:52:27;99503.22;;;2.43;87.99
59487;BME280;45298;54.918;73.504;2022-11-02T14:55:07;99495.34;;;2.45;88.20
59487;BME280;45298;54.918;73.504;2022-11-02T14:57:39;99499.53;;;2.49;88.08
59487;BME280;45298;54.918;73.504;2022-11-02T15:00:22;99511.41;;;2.57;88.42
59487;BME280;45298;54.918;73.504;2022-11-02T15:02:52;99460.50;;;2.42;88.39
59487;BME280;45298;54.918;73.504;2022-11-02T15:05:34;99473.69;;;2.63;87.93
59487;BME280;45298;54.918;73.504;2022-11-02T15:08:07;99479.09;;;2.59;87.83
59487;BME280;45298;54.918;73.504;2022-11-02T15:10:40;99505.75;;;2.68;88.15
59487;BME280;45298;54.918;73.504;2022-11-02T15:23:47;99458.75;;;2.65;87.45
59487;BME280;45298;54.918;73.504;2022-11-02T15:29:40;99479.78;;;2.86;87.69